sensor_id;sensor_type;location;lat;lon;timestamp;temperature;humidity
30288;DHT22;17103;48.316;11.558;2023-05-07T00:01:58;20.80;42.20
30288;DHT22;17103;48.316;11.558;2023-05-07T00:04:24;20.80;42.20
30288;DHT22;17103;48.316;11.558;2023-05-07T00:06:50;20.70;42.20
30288;DHT22;17103;48.316;11.558;2023-05-07T00:09:16;20.70;42.30
30288;DHT22;17103;48.316;11.558;2023-05-07T00:11:42;20.70;42.30
30288;DHT22;17103;48.316;11.558;2023-05-07T00:14:07;20.70;42.40
30288;DHT22;17103;48.316;11.558;2023-05-07T00:16:33;20.70;42.40
30288;DHT22;17103;48.316;11.558;2023-05-07T00:18:59;20.70;42.40
30288;DHT22;17103;48.316;11.558;2023-05-07T00:21:25;20.80;42.40
30288;DHT22;17103;48.316;11.558;2023-05-07T00:23:53;20.70;42.40
30288;DHT22;17103;48.316;11.558;2023-05-07T00:26:18;20.70;42.40
30288;DHT22;17103;48.316;11.558;2023-05-07T00:28:44;20.70;42.40
30288;DHT22;17103;48.316;11.558;2023-05-07T00:31:10;20.60;42.30
30288;DHT22;17103;48.316;11.558;2023-05-07T00:33:38;20.70;42.40
30288;DHT22;17103;48.316;11.558;2023-05-07T00:36:04;20.60;42.40
30288;DHT22;17103;48.316;11.558;2023-05-07T00:38:30;20.60;42.40
30288;DHT22;17103;48.316;11.558;2023-05-07T00:40:56;20.60;42.40
30288;DHT22;17103;48.316;11.558;2023-05-07T00:43:23;20.70;42.50
30288;DHT22;17103;48.316;11.558;2023-05-07T00:45:49;20.60;42.50
30288;DHT22;17103;48.316;11.558;2023-05-07T00:48:16;20.60;42.50
30288;DHT22;17103;48.316;11.558;2023-05-07T00:50:42;20.60;42.50
30288;DHT22;17103;48.316;11.558;2023-05-07T00:53:07;20.60;42.50
30288;DHT22;17103;48.316;11.558;2023-05-07T00:55:35;20.50;42.40
30288;DHT22;17103;48.316;11.558;2023-05-07T00:58:01;20.50;42.40
30288;DHT22;17103;48.316;11.558;2023-05-07T01:00:27;20.50;42.50
30288;DHT22;17103;48.316;11.558;2023-05-07T01:02:53;20.50;42.50
30288;DHT22;17103;48.316;11.558;2023-05-07T01:05:20;20.50;42.40
30288;DHT22;17103;48.316;11.558;2023-05-07T01:07:47;20.40;42.30
30288;DHT22;17103;48.316;11.558;2023-05-07T01:10:14;20.40;42.40
30288;DHT22;17103;48.316;11.558;2023-05-07T01:12:40;20.40;42.40
30288;DHT22;17103;48.316;11.558;2023-05-07T01:15:08;20.40;42.40
30288;DHT22;17103;48.316;11.558;2023-05-07T01:17:40;20.40;42.60
30288;DHT22;17103;48.316;11.558;2023-05-07T01:20:07;20.40;42.70
30288;DHT22;17103;48.316;11.558;2023-05-07T01:22:40;20.30;42.60
30288;DHT22;17103;48.316;11.558;2023-05-07T01:25:06;20.30;42.70
30288;DHT22;17103;48.316;11.558;2023-05-07T01:27:33;20.30;42.70
30288;DHT22;17103;48.316;11.558;2023-05-07T01:30:00;20.30;42.70
30288;DHT22;17103;48.316;11.558;2023-05-07T01:32:32;20.30;42.80
30288;DHT22;17103;48.316;11.558;2023-05-07T01:35:00;20.20;42.80
30288;DHT22;17103;48.316;11.558;2023-05-07T01:37:27;20.20;42.80
30288;DHT22;17103;48.316;11.558;2023-05-07T01:39:54;20.20;42.80
30288;DHT22;17103;48.316;11.558;2023-05-07T01:42:21;20.20;42.80
30288;DHT22;17103;48.316;11.558;2023-05-07T01:44:47;20.20;43.40
30288;DHT22;17103;48.316;11.558;2023-05-07T01:47:14;20.20;42.80
30288;DHT22;17103;48.316;11.558;2023-05-07T01:49:41;20.20;42.90
30288;DHT22;17103;48.316;11.558;2023-05-07T01:52:07;20.20;42.90
30288;DHT22;17103;48.316;11.558;2023-05-07T01:54:33;20.20;42.90
30288;DHT22;17103;48.316;11.558;2023-05-07T01:56:59;20.30;43.00
30288;DHT22;17103;48.316;11.558;2023-05-07T01:59:25;20.20;42.90
30288;DHT22;17103;48.316;11.558;2023-05-07T02:01:51;20.20;43.50
30288;DHT22;17103;48.316;11.558;2023-05-07T02:04:17;20.30;43.00
30288;DHT22;17103;48.316;11.558;2023-05-07T02:06:43;20.20;43.50
30288;DHT22;17103;48.316;11.558;2023-05-07T02:09:08;20.20;42.90
30288;DHT22;17103;48.316;11.558;2023-05-07T02:11:34;20.20;42.90
30288;DHT22;17103;48.316;11.558;2023-05-07T02:14:00;20.20;42.90
30288;DHT22;17103;48.316;11.558;2023-05-07T02:16:26;20.20;43.00
30288;DHT22;17103;48.316;11.558;2023-05-07T02:18:52;20.10;42.90
30288;DHT22;17103;48.316;11.558;2023-05-07T02:21:17;20.10;42.90
30288;DHT22;17103;48.316;11.558;2023-05-07T02:23:43;20.10;43.00
30288;DHT22;17103;48.316;11.558;2023-05-07T02:26:09;20.10;43.00
30288;DHT22;17103;48.316;11.558;2023-05-07T02:28:34;20.10;43.00
30288;DHT22;17103;48.316;11.558;2023-05-07T02:31:02;20.20;43.10
30288;DHT22;17103;48.316;11.558;2023-05-07T02:33:28;20.10;43.20
30288;DHT22;17103;48.316;11.558;2023-05-07T02:35:54;20.00;43.10
30288;DHT22;17103;48.316;11.558;2023-05-07T02:38:20;20.10;43.20
30288;DHT22;17103;48.316;11.558;2023-05-07T02:40:45;20.10;43.20
30288;DHT22;17103;48.316;11.558;2023-05-07T02:43:11;19.90;43.20
30288;DHT22;17103;48.316;11.558;2023-05-07T02:45:36;20.00;43.30
30288;DHT22;17103;48.316;11.558;2023-05-07T02:48:03;20.00;43.30
30288;DHT22;17103;48.316;11.558;2023-05-07T02:50:31;20.00;43.30
30288;DHT22;17103;48.316;11.558;2023-05-07T02:52:58;20.00;43.40
30288;DHT22;17103;48.316;11.558;2023-05-07T02:55:25;20.00;43.40
30288;DHT22;17103;48.316;11.558;2023-05-07T02:57:50;20.00;43.40
30288;DHT22;17103;48.316;11.558;2023-05-07T03:00:18;20.00;43.40
30288;DHT22;17103;48.316;11.558;2023-05-07T03:02:44;19.90;43.40
30288;DHT22;17103;48.316;11.558;2023-05-07T03:05:13;19.90;43.30
30288;DHT22;17103;48.316;11.558;2023-05-07T03:07:39;19.90;43.40
30288;DHT22;17103;48.316;11.558;2023-05-07T03:10:07;19.90;43.40
30288;DHT22;17103;48.316;11.558;2023-05-07T03:12:34;19.90;43.50
30288;DHT22;17103;48.316;11.558;2023-05-07T03:15:00;19.90;43.50
30288;DHT22;17103;48.316;11.558;2023-05-07T03:17:27;19.90;43.50
30288;DHT22;17103;48.316;11.558;2023-05-07T03:19:53;19.90;43.60
30288;DHT22;17103;48.316;11.558;2023-05-07T03:22:18;19.90;43.60
30288;DHT22;17103;48.316;11.558;2023-05-07T03:24:44;19.90;43.60
30288;DHT22;17103;48.316;11.558;2023-05-07T03:27:10;20.10;43.80
30288;DHT22;17103;48.316;11.558;2023-05-07T03:29:35;19.90;43.70
30288;DHT22;17103;48.316;11.558;2023-05-07T03:32:01;19.90;43.70
30288;DHT22;17103;48.316;11.558;2023-05-07T03:34:26;20.00;43.80
30288;DHT22;17103;48.316;11.558;2023-05-07T03:36:52;19.80;43.60
30288;DHT22;17103;48.316;11.558;2023-05-07T03:39:18;19.80;43.70
30288;DHT22;17103;48.316;11.558;2023-05-07T03:41:43;19.80;43.80
30288;DHT22;17103;48.316;11.558;2023-05-07T03:44:09;19.90;43.80
30288;DHT22;17103;48.316;11.558;2023-05-07T03:46:35;19.80;43.80
30288;DHT22;17103;48.316;11.558;2023-05-07T03:49:00;19.90;44.40
30288;DHT22;17103;48.316;11.558;2023-05-07T03:51:26;19.90;43.90
30288;DHT22;17103;48.316;11.558;2023-05-07T03:53:52;19.80;43.80
30288;DHT22;17103;48.316;11.558;2023-05-07T03:56:19;19.80;43.70
30288;DHT22;17103;48.316;11.558;2023-05-07T03:58:45;19.80;43.80
30288;DHT22;17103;48.316;11.558;2023-05-07T04:01:11;19.80;43.80
30288;DHT22;17103;48.316;11.558;2023-05-07T04:03:37;19.80;43.80
30288;DHT22;17103;48.316;11.558;2023-05-07T04:06:02;19.80;43.80
30288;DHT22;17103;48.316;11.558;2023-05-07T04:08:28;19.80;43.70
30288;DHT22;17103;48.316;11.558;2023-05-07T04:10:57;19.90;43.80
30288;DHT22;17103;48.316;11.558;2023-05-07T04:13:24;19.70;43.70
30288;DHT22;17103;48.316;11.558;2023-05-07T04:15:51;19.70;44.20
30288;DHT22;17103;48.316;11.558;2023-05-07T04:18:17;19.70;43.90
30288;DHT22;17103;48.316;11.558;2023-05-07T04:20:43;19.70;43.60
30288;DHT22;17103;48.316;11.558;2023-05-07T04:23:09;19.70;43.60
30288;DHT22;17103;48.316;11.558;2023-05-07T04:25:34;19.80;43.60
30288;DHT22;17103;48.316;11.558;2023-05-07T04:28:00;19.60;43.50
30288;DHT22;17103;48.316;11.558;2023-05-07T04:30:26;19.60;43.60
30288;DHT22;17103;48.316;11.558;2023-05-07T04:32:52;19.60;43.60
30288;DHT22;17103;48.316;11.558;2023-05-07T04:35:18;19.60;43.60
30288;DHT22;17103;48.316;11.558;2023-05-07T04:37:44;19.60;43.70
30288;DHT22;17103;48.316;11.558;2023-05-07T04:40:10;19.60;43.70
30288;DHT22;17103;48.316;11.558;2023-05-07T04:42:36;19.60;43.70
30288;DHT22;17103;48.316;11.558;2023-05-07T04:45:02;19.60;43.80
30288;DHT22;17103;48.316;11.558;2023-05-07T04:47:28;19.60;43.80
30288;DHT22;17103;48.316;11.558;2023-05-07T04:49:54;19.60;43.80
30288;DHT22;17103;48.316;11.558;2023-05-07T04:52:20;19.60;43.90
30288;DHT22;17103;48.316;11.558;2023-05-07T04:54:47;19.60;44.40
30288;DHT22;17103;48.316;11.558;2023-05-07T04:57:13;19.70;43.90
30288;DHT22;17103;48.316;11.558;2023-05-07T04:59:39;19.60;43.90
30288;DHT22;17103;48.316;11.558;2023-05-07T05:02:04;19.70;44.00
30288;DHT22;17103;48.316;11.558;2023-05-07T05:04:30;19.70;44.10
30288;DHT22;17103;48.316;11.558;2023-05-07T05:06:56;19.80;44.20
30288;DHT22;17103;48.316;11.558;2023-05-07T05:09:22;19.70;44.10
30288;DHT22;17103;48.316;11.558;2023-05-07T05:11:47;19.70;44.20
30288;DHT22;17103;48.316;11.558;2023-05-07T05:14:13;19.80;44.30
30288;DHT22;17103;48.316;11.558;2023-05-07T05:16:39;19.80;44.30
30288;DHT22;17103;48.316;11.558;2023-05-07T05:19:04;19.90;44.40
30288;DHT22;17103;48.316;11.558;2023-05-07T05:21:31;19.80;44.40
30288;DHT22;17103;48.316;11.558;2023-05-07T05:23:57;19.90;44.50
30288;DHT22;17103;48.316;11.558;2023-05-07T05:26:22;19.80;44.50
30288;DHT22;17103;48.316;11.558;2023-05-07T05:28:48;19.90;44.60
30288;DHT22;17103;48.316;11.558;2023-05-07T05:31:14;20.00;44.70
30288;DHT22;17103;48.316;11.558;2023-05-07T05:33:39;20.10;44.90
30288;DHT22;17103;48.316;11.558;2023-05-07T05:36:06;20.00;44.80
30288;DHT22;17103;48.316;11.558;2023-05-07T05:38:32;20.00;44.70
30288;DHT22;17103;48.316;11.558;2023-05-07T05:40:57;20.10;44.90
30288;DHT22;17103;48.316;11.558;2023-05-07T05:43:23;20.20;45.10
30288;DHT22;17103;48.316;11.558;2023-05-07T05:45:49;20.10;45.00
30288;DHT22;17103;48.316;11.558;2023-05-07T05:48:14;20.20;45.00
30288;DHT22;17103;48.316;11.558;2023-05-07T05:50:41;20.20;45.00
30288;DHT22;17103;48.316;11.558;2023-05-07T05:53:07;20.20;45.00
30288;DHT22;17103;48.316;11.558;2023-05-07T05:55:33;20.30;45.10
30288;DHT22;17103;48.316;11.558;2023-05-07T05:58:00;20.50;45.30
30288;DHT22;17103;48.316;11.558;2023-05-07T06:00:26;20.40;45.20
30288;DHT22;17103;48.316;11.558;2023-05-07T06:02:52;20.50;45.30
30288;DHT22;17103;48.316;11.558;2023-05-07T06:05:18;20.50;45.20
30288;DHT22;17103;48.316;11.558;2023-05-07T06:07:44;20.60;45.10
30288;DHT22;17103;48.316;11.558;2023-05-07T06:10:10;20.60;45.20
30288;DHT22;17103;48.316;11.558;2023-05-07T06:12:35;20.70;45.20
30288;DHT22;17103;48.316;11.558;2023-05-07T06:15:01;20.70;45.20
30288;DHT22;17103;48.316;11.558;2023-05-07T06:17:27;20.80;45.30
30288;DHT22;17103;48.316;11.558;2023-05-07T06:19:53;20.80;45.10
30288;DHT22;17103;48.316;11.558;2023-05-07T06:22:18;20.80;44.80
30288;DHT22;17103;48.316;11.558;2023-05-07T06:24:44;20.80;45.00
30288;DHT22;17103;48.316;11.558;2023-05-07T06:27:10;20.80;45.10
30288;DHT22;17103;48.316;11.558;2023-05-07T06:29:36;20.80;45.10
30288;DHT22;17103;48.316;11.558;2023-05-07T06:32:11;20.80;45.20
30288;DHT22;17103;48.316;11.558;2023-05-07T06:34:37;20.80;45.50
30288;DHT22;17103;48.316;11.558;2023-05-07T06:37:03;20.80;45.70
30288;DHT22;17103;48.316;11.558;2023-05-07T06:39:29;20.80;45.60
30288;DHT22;17103;48.316;11.558;2023-05-07T06:41:57;20.80;45.70
30288;DHT22;17103;48.316;11.558;2023-05-07T06:44:23;20.80;45.80
30288;DHT22;17103;48.316;11.558;2023-05-07T06:46:49;20.80;45.90
30288;DHT22;17103;48.316;11.558;2023-05-07T06:49:15;20.80;46.10
30288;DHT22;17103;48.316;11.558;2023-05-07T06:51:40;20.80;46.20
30288;DHT22;17103;48.316;11.558;2023-05-07T06:54:06;20.80;45.90
30288;DHT22;17103;48.316;11.558;2023-05-07T06:56:32;20.80;46.20
30288;DHT22;17103;48.316;11.558;2023-05-07T06:59:01;20.90;46.10
30288;DHT22;17103;48.316;11.558;2023-05-07T07:01:28;20.90;46.40
30288;DHT22;17103;48.316;11.558;2023-05-07T07:03:54;20.90;46.00
30288;DHT22;17103;48.316;11.558;2023-05-07T07:06:20;21.00;46.40
30288;DHT22;17103;48.316;11.558;2023-05-07T07:08:46;21.00;46.60
30288;DHT22;17103;48.316;11.558;2023-05-07T07:11:11;21.00;46.20
30288;DHT22;17103;48.316;11.558;2023-05-07T07:13:37;21.00;46.10
30288;DHT22;17103;48.316;11.558;2023-05-07T07:16:03;21.10;46.40
30288;DHT22;17103;48.316;11.558;2023-05-07T07:18:29;21.10;46.50
30288;DHT22;17103;48.316;11.558;2023-05-07T07:20:55;21.20;46.80
30288;DHT22;17103;48.316;11.558;2023-05-07T07:23:20;21.30;46.80
30288;DHT22;17103;48.316;11.558;2023-05-07T07:25:46;21.30;46.60
30288;DHT22;17103;48.316;11.558;2023-05-07T07:28:12;21.40;46.40
30288;DHT22;17103;48.316;11.558;2023-05-07T07:30:38;21.40;46.80
30288;DHT22;17103;48.316;11.558;2023-05-07T07:33:05;21.30;46.60
30288;DHT22;17103;48.316;11.558;2023-05-07T07:35:34;21.60;46.90
30288;DHT22;17103;48.316;11.558;2023-05-07T07:38:00;21.60;46.50
30288;DHT22;17103;48.316;11.558;2023-05-07T07:40:27;21.70;46.70
30288;DHT22;17103;48.316;11.558;2023-05-07T07:42:53;21.80;46.80
30288;DHT22;17103;48.316;11.558;2023-05-07T07:45:20;21.80;46.80
30288;DHT22;17103;48.316;11.558;2023-05-07T07:47:46;21.90;47.00
30288;DHT22;17103;48.316;11.558;2023-05-07T07:50:11;22.00;47.10
30288;DHT22;17103;48.316;11.558;2023-05-07T07:52:37;22.00;47.10
30288;DHT22;17103;48.316;11.558;2023-05-07T07:55:03;22.10;47.20
30288;DHT22;17103;48.316;11.558;2023-05-07T07:57:30;22.20;46.90
30288;DHT22;17103;48.316;11.558;2023-05-07T07:59:56;22.30;47.00
30288;DHT22;17103;48.316;11.558;2023-05-07T08:02:21;22.30;46.70
30288;DHT22;17103;48.316;11.558;2023-05-07T08:04:47;22.30;46.80
30288;DHT22;17103;48.316;11.558;2023-05-07T08:07:13;22.50;47.00
30288;DHT22;17103;48.316;11.558;2023-05-07T08:09:39;22.50;46.90
30288;DHT22;17103;48.316;11.558;2023-05-07T08:12:06;22.60;46.90
30288;DHT22;17103;48.316;11.558;2023-05-07T08:14:33;22.70;46.90
30288;DHT22;17103;48.316;11.558;2023-05-07T08:16:59;22.70;46.80
30288;DHT22;17103;48.316;11.558;2023-05-07T08:19:26;22.80;46.80
30288;DHT22;17103;48.316;11.558;2023-05-07T08:21:51;22.90;46.80
30288;DHT22;17103;48.316;11.558;2023-05-07T08:24:20;22.90;46.60
30288;DHT22;17103;48.316;11.558;2023-05-07T08:26:46;23.00;46.40
30288;DHT22;17103;48.316;11.558;2023-05-07T08:29:12;23.10;46.60
30288;DHT22;17103;48.316;11.558;2023-05-07T08:31:37;23.10;46.30
30288;DHT22;17103;48.316;11.558;2023-05-07T08:34:06;23.20;46.20
30288;DHT22;17103;48.316;11.558;2023-05-07T08:36:32;23.30;46.30
30288;DHT22;17103;48.316;11.558;2023-05-07T08:38:58;23.40;46.40
30288;DHT22;17103;48.316;11.558;2023-05-07T08:41:24;23.30;46.40
30288;DHT22;17103;48.316;11.558;2023-05-07T08:43:51;23.50;46.40
30288;DHT22;17103;48.316;11.558;2023-05-07T08:46:21;23.50;46.30
30288;DHT22;17103;48.316;11.558;2023-05-07T08:48:51;23.60;46.50
30288;DHT22;17103;48.316;11.558;2023-05-07T08:51:19;23.60;46.50
30288;DHT22;17103;48.316;11.558;2023-05-07T08:53:47;23.70;46.40
30288;DHT22;17103;48.316;11.558;2023-05-07T08:56:16;23.90;46.30
30288;DHT22;17103;48.316;11.558;2023-05-07T08:58:43;23.80;46.10
30288;DHT22;17103;48.316;11.558;2023-05-07T09:01:12;24.00;46.80
30288;DHT22;17103;48.316;11.558;2023-05-07T09:03:39;24.10;46.00
30288;DHT22;17103;48.316;11.558;2023-05-07T09:06:05;24.10;45.90
30288;DHT22;17103;48.316;11.558;2023-05-07T09:08:33;24.10;45.90
30288;DHT22;17103;48.316;11.558;2023-05-07T09:10:59;24.20;45.80
30288;DHT22;17103;48.316;11.558;2023-05-07T09:13:27;24.30;45.90
30288;DHT22;17103;48.316;11.558;2023-05-07T09:15:52;24.40;46.00
30288;DHT22;17103;48.316;11.558;2023-05-07T09:18:18;24.50;46.10
30288;DHT22;17103;48.316;11.558;2023-05-07T09:20:44;24.50;46.00
30288;DHT22;17103;48.316;11.558;2023-05-07T09:23:10;24.60;45.90
30288;DHT22;17103;48.316;11.558;2023-05-07T09:25:36;24.60;45.70
30288;DHT22;17103;48.316;11.558;2023-05-07T09:28:03;24.80;45.60
30288;DHT22;17103;48.316;11.558;2023-05-07T09:30:30;24.80;45.50
30288;DHT22;17103;48.316;11.558;2023-05-07T09:33:01;24.90;45.60
30288;DHT22;17103;48.316;11.558;2023-05-07T09:35:27;25.00;45.80
30288;DHT22;17103;48.316;11.558;2023-05-07T09:37:55;25.00;45.20
30288;DHT22;17103;48.316;11.558;2023-05-07T09:40:25;25.10;44.90
30288;DHT22;17103;48.316;11.558;2023-05-07T09:42:51;25.20;45.00
30288;DHT22;17103;48.316;11.558;2023-05-07T09:45:29;25.20;44.90
30288;DHT22;17103;48.316;11.558;2023-05-07T09:47:56;25.30;44.50
30288;DHT22;17103;48.316;11.558;2023-05-07T09:50:27;25.40;44.60
30288;DHT22;17103;48.316;11.558;2023-05-07T09:52:54;25.40;44.40
30288;DHT22;17103;48.316;11.558;2023-05-07T09:55:20;25.50;44.30
30288;DHT22;17103;48.316;11.558;2023-05-07T09:57:50;25.50;44.10
30288;DHT22;17103;48.316;11.558;2023-05-07T10:00:19;25.60;43.80
30288;DHT22;17103;48.316;11.558;2023-05-07T10:02:50;25.60;43.30
30288;DHT22;17103;48.316;11.558;2023-05-07T10:05:19;25.70;43.50
30288;DHT22;17103;48.316;11.558;2023-05-07T10:07:46;25.80;43.20
30288;DHT22;17103;48.316;11.558;2023-05-07T10:10:14;25.80;43.10
30288;DHT22;17103;48.316;11.558;2023-05-07T10:12:41;25.90;42.90
30288;DHT22;17103;48.316;11.558;2023-05-07T10:15:10;25.90;42.50
30288;DHT22;17103;48.316;11.558;2023-05-07T10:17:37;25.90;42.10
30288;DHT22;17103;48.316;11.558;2023-05-07T10:20:04;26.00;42.60
30288;DHT22;17103;48.316;11.558;2023-05-07T10:22:47;26.10;42.30
30288;DHT22;17103;48.316;11.558;2023-05-07T10:25:26;26.10;42.00
30288;DHT22;17103;48.316;11.558;2023-05-07T10:27:55;26.20;41.80
30288;DHT22;17103;48.316;11.558;2023-05-07T10:33:12;26.20;41.50
30288;DHT22;17103;48.316;11.558;2023-05-07T10:35:47;26.30;41.00
30288;DHT22;17103;48.316;11.558;2023-05-07T10:38:16;26.40;41.20
30288;DHT22;17103;48.316;11.558;2023-05-07T10:40:51;26.40;41.10
30288;DHT22;17103;48.316;11.558;2023-05-07T10:43:39;26.50;40.90
30288;DHT22;17103;48.316;11.558;2023-05-07T10:46:16;26.50;40.10
30288;DHT22;17103;48.316;11.558;2023-05-07T10:51:27;26.60;40.10
30288;DHT22;17103;48.316;11.558;2023-05-07T10:56:38;26.70;40.10
30288;DHT22;17103;48.316;11.558;2023-05-07T10:59:37;26.70;40.60
30288;DHT22;17103;48.316;11.558;2023-05-07T11:02:08;26.80;40.00
30288;DHT22;17103;48.316;11.558;2023-05-07T11:04:37;26.80;40.20
30288;DHT22;17103;48.316;11.558;2023-05-07T11:10:08;26.90;40.80
30288;DHT22;17103;48.316;11.558;2023-05-07T11:15:04;27.10;39.90
30288;DHT22;17103;48.316;11.558;2023-05-07T11:17:30;27.10;39.90
30288;DHT22;17103;48.316;11.558;2023-05-07T11:19:57;27.20;40.00
30288;DHT22;17103;48.316;11.558;2023-05-07T11:25:02;27.30;40.00
30288;DHT22;17103;48.316;11.558;2023-05-07T11:27:29;27.30;40.10
30288;DHT22;17103;48.316;11.558;2023-05-07T11:29:55;27.40;39.90
30288;DHT22;17103;48.316;11.558;2023-05-07T11:32:27;27.40;39.60
30288;DHT22;17103;48.316;11.558;2023-05-07T11:35:00;27.40;39.30
30288;DHT22;17103;48.316;11.558;2023-05-07T11:37:27;27.50;38.90
30288;DHT22;17103;48.316;11.558;2023-05-07T11:40:05;27.50;39.00
30288;DHT22;17103;48.316;11.558;2023-05-07T11:42:36;27.60;39.40
30288;DHT22;17103;48.316;11.558;2023-05-07T11:45:06;27.60;38.90
30288;DHT22;17103;48.316;11.558;2023-05-07T11:47:33;27.70;39.20
30288;DHT22;17103;48.316;11.558;2023-05-07T11:50:07;27.60;38.90
30288;DHT22;17103;48.316;11.558;2023-05-07T11:52:34;27.70;38.70
30288;DHT22;17103;48.316;11.558;2023-05-07T11:55:01;27.80;39.10
30288;DHT22;17103;48.316;11.558;2023-05-07T11:57:27;27.80;38.60
30288;DHT22;17103;48.316;11.558;2023-05-07T11:59:57;27.90;38.90
30288;DHT22;17103;48.316;11.558;2023-05-07T12:02:24;27.90;38.20
30288;DHT22;17103;48.316;11.558;2023-05-07T12:04:54;27.90;38.90
30288;DHT22;17103;48.316;11.558;2023-05-07T12:07:21;28.00;38.50
30288;DHT22;17103;48.316;11.558;2023-05-07T12:09:50;28.00;38.30
30288;DHT22;17103;48.316;11.558;2023-05-07T12:12:15;28.00;38.40
30288;DHT22;17103;48.316;11.558;2023-05-07T12:14:44;28.10;38.40
30288;DHT22;17103;48.316;11.558;2023-05-07T12:17:11;28.10;38.40
30288;DHT22;17103;48.316;11.558;2023-05-07T12:19:39;28.10;37.70
30288;DHT22;17103;48.316;11.558;2023-05-07T12:22:08;28.10;38.00
30288;DHT22;17103;48.316;11.558;2023-05-07T12:24:48;28.20;37.70
30288;DHT22;17103;48.316;11.558;2023-05-07T12:27:15;28.20;37.50
30288;DHT22;17103;48.316;11.558;2023-05-07T12:29:47;28.30;38.00
30288;DHT22;17103;48.316;11.558;2023-05-07T12:32:18;28.30;37.50
30288;DHT22;17103;48.316;11.558;2023-05-07T12:34:45;28.40;37.50
30288;DHT22;17103;48.316;11.558;2023-05-07T12:37:11;28.40;38.20
30288;DHT22;17103;48.316;11.558;2023-05-07T12:39:44;28.40;38.00
30288;DHT22;17103;48.316;11.558;2023-05-07T12:42:23;28.50;38.20
30288;DHT22;17103;48.316;11.558;2023-05-07T12:44:51;28.50;37.50
30288;DHT22;17103;48.316;11.558;2023-05-07T12:47:23;28.50;37.60
30288;DHT22;17103;48.316;11.558;2023-05-07T12:50:02;28.50;38.00
30288;DHT22;17103;48.316;11.558;2023-05-07T12:52:28;28.60;37.00
30288;DHT22;17103;48.316;11.558;2023-05-07T12:54:54;28.60;37.00
30288;DHT22;17103;48.316;11.558;2023-05-07T12:57:20;28.60;37.10
30288;DHT22;17103;48.316;11.558;2023-05-07T12:59:46;28.70;37.30
30288;DHT22;17103;48.316;11.558;2023-05-07T13:02:12;28.70;37.30
30288;DHT22;17103;48.316;11.558;2023-05-07T13:04:38;28.70;37.20
30288;DHT22;17103;48.316;11.558;2023-05-07T13:07:04;28.70;36.90
30288;DHT22;17103;48.316;11.558;2023-05-07T13:09:31;28.70;36.70
30288;DHT22;17103;48.316;11.558;2023-05-07T13:11:57;28.80;36.60
30288;DHT22;17103;48.316;11.558;2023-05-07T13:14:25;28.80;37.30
30288;DHT22;17103;48.316;11.558;2023-05-07T13:16:51;28.80;36.90
30288;DHT22;17103;48.316;11.558;2023-05-07T13:19:16;28.80;36.80
30288;DHT22;17103;48.316;11.558;2023-05-07T13:21:42;28.90;36.90
30288;DHT22;17103;48.316;11.558;2023-05-07T13:24:08;28.90;36.70
30288;DHT22;17103;48.316;11.558;2023-05-07T13:26:35;28.90;36.60
30288;DHT22;17103;48.316;11.558;2023-05-07T13:29:00;28.90;36.60
30288;DHT22;17103;48.316;11.558;2023-05-07T13:31:26;29.00;37.00
30288;DHT22;17103;48.316;11.558;2023-05-07T13:33:52;29.00;36.50
30288;DHT22;17103;48.316;11.558;2023-05-07T13:36:19;29.00;36.30
30288;DHT22;17103;48.316;11.558;2023-05-07T13:38:45;29.00;35.70
30288;DHT22;17103;48.316;11.558;2023-05-07T13:41:12;29.10;36.10
30288;DHT22;17103;48.316;11.558;2023-05-07T13:43:38;29.10;35.90
30288;DHT22;17103;48.316;11.558;2023-05-07T13:46:04;29.10;36.10
30288;DHT22;17103;48.316;11.558;2023-05-07T13:48:29;29.10;35.40
30288;DHT22;17103;48.316;11.558;2023-05-07T13:50:55;29.10;35.40
30288;DHT22;17103;48.316;11.558;2023-05-07T13:53:21;29.20;35.90
30288;DHT22;17103;48.316;11.558;2023-05-07T13:55:47;29.20;35.60
30288;DHT22;17103;48.316;11.558;2023-05-07T13:58:12;29.20;35.20
30288;DHT22;17103;48.316;11.558;2023-05-07T14:00:38;29.20;35.40
30288;DHT22;17103;48.316;11.558;2023-05-07T14:03:04;29.20;35.20
30288;DHT22;17103;48.316;11.558;2023-05-07T14:05:30;29.20;35.30
30288;DHT22;17103;48.316;11.558;2023-05-07T14:08:00;29.10;35.50
30288;DHT22;17103;48.316;11.558;2023-05-07T14:10:25;29.10;34.80
30288;DHT22;17103;48.316;11.558;2023-05-07T14:12:51;29.10;34.80
30288;DHT22;17103;48.316;11.558;2023-05-07T14:15:18;29.10;34.90
30288;DHT22;17103;48.316;11.558;2023-05-07T14:17:44;29.10;35.00
30288;DHT22;17103;48.316;11.558;2023-05-07T14:20:11;29.10;34.90
30288;DHT22;17103;48.316;11.558;2023-05-07T14:22:37;29.10;34.90
30288;DHT22;17103;48.316;11.558;2023-05-07T14:25:03;29.10;34.90
30288;DHT22;17103;48.316;11.558;2023-05-07T14:27:29;29.00;34.60
30288;DHT22;17103;48.316;11.558;2023-05-07T14:29:55;29.00;34.70
30288;DHT22;17103;48.316;11.558;2023-05-07T14:32:21;29.00;34.70
30288;DHT22;17103;48.316;11.558;2023-05-07T14:34:47;29.00;34.50
30288;DHT22;17103;48.316;11.558;2023-05-07T14:37:13;29.00;34.30
30288;DHT22;17103;48.316;11.558;2023-05-07T14:39:38;29.00;34.30
30288;DHT22;17103;48.316;11.558;2023-05-07T14:42:04;29.00;34.50
30288;DHT22;17103;48.316;11.558;2023-05-07T14:44:30;29.00;34.50
30288;DHT22;17103;48.316;11.558;2023-05-07T14:46:56;29.00;34.40
30288;DHT22;17103;48.316;11.558;2023-05-07T14:49:23;28.90;34.10
30288;DHT22;17103;48.316;11.558;2023-05-07T14:51:49;28.90;34.00
30288;DHT22;17103;48.316;11.558;2023-05-07T14:54:15;28.90;34.50
30288;DHT22;17103;48.316;11.558;2023-05-07T14:56:41;28.90;34.40
30288;DHT22;17103;48.316;11.558;2023-05-07T14:59:08;28.90;34.30
30288;DHT22;17103;48.316;11.558;2023-05-07T15:01:40;28.90;34.30
30288;DHT22;17103;48.316;11.558;2023-05-07T15:04:10;28.80;34.10
30288;DHT22;17103;48.316;11.558;2023-05-07T15:06:36;28.80;34.20
30288;DHT22;17103;48.316;11.558;2023-05-07T15:09:02;28.80;34.50
30288;DHT22;17103;48.316;11.558;2023-05-07T15:11:28;28.70;34.00
30288;DHT22;17103;48.316;11.558;2023-05-07T15:13:54;28.70;34.10
30288;DHT22;17103;48.316;11.558;2023-05-07T15:16:19;28.70;34.10
30288;DHT22;17103;48.316;11.558;2023-05-07T15:18:45;28.70;34.00
30288;DHT22;17103;48.316;11.558;2023-05-07T15:21:11;28.60;34.00
30288;DHT22;17103;48.316;11.558;2023-05-07T15:23:37;28.60;33.90
30288;DHT22;17103;48.316;11.558;2023-05-07T15:26:04;28.60;34.30
30288;DHT22;17103;48.316;11.558;2023-05-07T15:28:30;28.50;34.20
30288;DHT22;17103;48.316;11.558;2023-05-07T15:30:56;28.50;34.10